Time;durP1;ratioP1;P1;durP2;ratioP2;P2;SDS_P1;SDS_P2;PMS_P1;PMS_P2;Temp;Humidity;BMP_temperature;BMP_pressure;BME280_temperature;BME280_humidity;BME280_pressure;Samples;Min_cycle;Max_cycle;Signal;HPM_P1;HPM_P2
2022/12/30 00:01:15;;;;;;;1.50;1.30;;;;;;;10.52;72.99;95459.13;6124671;23;20235;-84
2022/12/30 00:03:42;;;;;;;1.67;1.20;;;;;;;10.57;72.88;95454.25;6123964;23;20238;-82
2022/12/30 00:06:14;;;;;;;1.20;1.03;;;;;;;10.49;73.78;95464.63;6124799;23;20200;-82
2022/12/30 00:08:49;;;;;;;2.60;1.07;;;;;;;10.50;74.89;95469.59;6123976;23;20172;-82
2022/12/30 00:11:17;;;;;;;1.03;0.93;;;;;;;10.47;75.13;95462.22;6124015;23;20163;-82
2022/12/30 00:33:37;;;;;;;1.07;0.97;;;;;;;10.42;77.53;95516.00;6123529;23;20640;-83
2022/12/30 00:36:04;;;;;;;2.20;1.10;;;;;;;10.44;77.26;95528.69;6125519;23;20168;-82
2022/12/30 00:38:30;;;;;;;3.10;1.10;;;;;;;10.38;78.04;95525.06;6123596;23;20175;-81
2022/12/30 00:43:42;;;;;;;0.80;0.70;;;;;;;10.11;79.42;95575.28;6124168;23;20171;-82
2022/12/30 00:46:09;;;;;;;0.70;0.70;;;;;;;9.87;78.81;95573.72;6123620;23;20226;-82
2022/12/30 00:56:48;;;;;;;0.40;0.40;;;;;;;9.24;80.22;95604.75;6124889;23;20187;-82
2022/12/30 00:59:15;;;;;;;0.40;0.40;;;;;;;9.13;80.49;95611.06;6124606;23;20522;-82
2022/12/30 01:01:41;;;;;;;0.50;0.50;;;;;;;9.07;82.08;95621.19;6125140;23;20611;-82
2022/12/30 01:04:08;;;;;;;0.33;0.33;;;;;;;9.00;82.64;95621.09;6125555;23;20200;-81
2022/12/30 01:06:36;;;;;;;0.40;0.40;;;;;;;8.97;82.21;95624.78;6124780;23;20258;-82
2022/12/30 01:09:02;;;;;;;0.50;0.50;;;;;;;8.93;82.37;95623.50;6124089;23;20179;-82
2022/12/30 01:11:29;;;;;;;0.60;0.50;;;;;;;8.88;83.36;95632.66;6125578;23;20188;-82
2022/12/30 01:13:56;;;;;;;0.40;0.40;;;;;;;8.91;83.85;95640.84;6123747;23;20196;-83
2022/12/30 01:16:23;;;;;;;0.60;0.60;;;;;;;8.93;83.86;95643.25;6124045;23;20180;-82
2022/12/30 01:18:49;;;;;;;0.60;0.60;;;;;;;8.95;83.66;95641.31;6123176;23;20211;-82
2022/12/30 01:21:16;;;;;;;0.77;0.50;;;;;;;8.92;83.26;95647.56;6124665;23;20661;-82
2022/12/30 01:23:43;;;;;;;0.40;0.40;;;;;;;8.96;82.84;95648.06;6123847;23;20237;-83
2022/12/30 01:26:10;;;;;;;0.40;0.40;;;;;;;8.94;82.64;95652.56;6123862;23;20242;-82
2022/12/30 01:28:37;;;;;;;0.50;0.50;;;;;;;9.06;81.65;95658.94;6123563;23;20187;-82
2022/12/30 01:31:08;;;;;;;0.40;0.40;;;;;;;9.09;81.31;95661.16;6124516;23;20218;-82
2022/12/30 01:33:34;;;;;;;0.50;0.50;;;;;;;9.07;81.49;95660.53;6123951;23;20179;-82
2022/12/30 01:36:01;;;;;;;0.40;0.40;;;;;;;9.07;82.17;95663.09;6124096;23;20237;-81
2022/12/30 01:38:29;;;;;;;0.87;0.50;;;;;;;9.08;81.77;95657.00;6123488;23;20872;-83
2022/12/30 01:40:56;;;;;;;0.40;0.40;;;;;;;9.06;81.71;95656.34;6124121;23;20195;-84
2022/12/30 01:43:45;;;;;;;0.63;0.50;;;;;;;9.04;82.80;95660.88;6124676;23;20180;-82
2022/12/30 01:46:17;;;;;;;0.40;0.40;;;;;;;9.05;82.69;95662.47;6122707;23;20191;-81
2022/12/30 01:48:44;;;;;;;0.93;0.50;;;;;;;9.00;81.77;95662.97;6124106;23;20175;-82
2022/12/30 01:51:16;;;;;;;0.70;0.70;;;;;;;9.00;82.41;95662.97;6124226;23;20244;-83
2022/12/30 01:53:46;;;;;;;0.40;0.40;;;;;;;9.03;82.05;95661.03;6125932;23;20265;-82
2022/12/30 01:56:17;;;;;;;0.40;0.40;;;;;;;9.00;82.13;95669.88;6125322;23;20521;-82
2022/12/30 01:58:50;;;;;;;0.50;0.50;;;;;;;9.04;81.47;95678.06;6125728;23;20174;-82
2022/12/30 02:01:18;;;;;;;0.97;0.57;;;;;;;9.07;80.70;95675.13;6126430;23;20163;-82
2022/12/30 02:03:47;;;;;;;0.77;0.40;;;;;;;9.10;80.88;95675.63;6125933;23;20179;-83
2022/12/30 02:06:17;;;;;;;0.57;0.50;;;;;;;9.08;80.91;95674.19;6125780;23;20220;-83
2022/12/30 02:08:43;;;;;;;0.50;0.50;;;;;;;9.08;81.07;95674.19;6125698;23;20168;-81
2022/12/30 02:11:10;;;;;;;0.50;0.50;;;;;;;9.04;81.52;95670.34;6125912;23;20684;-82
2022/12/30 02:13:36;;;;;;;0.40;0.40;;;;;;;9.00;82.72;95665.53;6125577;23;20187;-81
2022/12/30 02:16:26;;;;;;;0.43;0.43;;;;;;;9.06;82.30;95665.81;6126686;23;20175;-82
2022/12/30 02:19:18;;;;;;;0.50;0.50;;;;;;;9.02;82.41;95647.41;6126505;23;20170;-81
2022/12/30 02:21:58;;;;;;;0.50;0.50;;;;;;;9.04;82.51;95653.19;6126421;23;20167;-82
2022/12/30 02:25:02;;;;;;;0.40;0.40;;;;;;;9.03;82.49;95659.28;6126093;23;20202;-82
2022/12/30 02:27:51;;;;;;;0.90;0.90;;;;;;;9.02;82.27;95660.25;6125553;23;20183;-82
2022/12/30 02:30:20;;;;;;;3.00;2.80;;;;;;;9.02;81.67;95665.38;6126652;23;20164;-81
2022/12/30 02:33:08;;;;;;;6.93;6.20;;;;;;;9.03;82.31;95668.75;6125965;23;20183;-83
2022/12/30 02:35:46;;;;;;;2.60;2.40;;;;;;;9.02;81.90;95667.16;6126076;23;20204;-83
2022/12/30 02:38:23;;;;;;;1.30;1.20;;;;;;;8.95;82.31;95670.38;6125258;23;20222;-82
2022/12/30 02:46:34;;;;;;;1.67;0.60;;;;;;;8.86;83.40;95668.75;6124543;23;20231;-83
2022/12/30 02:49:06;;;;;;;0.47;0.47;;;;;;;8.86;83.49;95676.47;6125386;23;20160;-82
2022/12/30 02:54:18;;;;;;;0.47;0.47;;;;;;;8.68;84.41;95677.63;6125131;23;20279;-81
2022/12/30 02:56:49;;;;;;;0.80;0.50;;;;;;;8.72;83.66;95672.00;6124571;23;20179;-81
2022/12/30 03:05:10;;;;;;;0.40;0.40;;;;;;;8.81;83.54;95677.94;6124018;23;20217;-82
2022/12/30 03:07:45;;;;;;;0.50;0.50;;;;;;;8.82;83.85;95675.22;6124848;23;20226;-82
2022/12/30 03:13:11;;;;;;;2.60;2.30;;;;;;;8.68;83.93;95688.69;6124665;23;20174;-83
2022/12/30 03:15:43;;;;;;;0.80;0.60;;;;;;;8.65;84.66;95687.28;6124508;23;20191;-82
2022/12/30 03:18:11;;;;;;;0.73;0.70;;;;;;;8.58;84.68;95688.06;6124573;23;20215;-82
2022/12/30 03:20:41;;;;;;;0.50;0.50;;;;;;;8.53;85.10;95695.44;6124380;23;20833;-83
2022/12/30 03:28:43;;;;;;;0.50;0.50;;;;;;;8.45;85.33;95700.59;6125198;23;20167;-83
2022/12/30 03:31:12;;;;;;;0.50;0.50;;;;;;;8.46;84.89;95691.94;6125260;23;20160;-82
2022/12/30 03:33:40;;;;;;;0.50;0.50;;;;;;;8.41;84.89;95691.59;6124748;23;20180;-82
2022/12/30 03:36:14;;;;;;;0.43;0.43;;;;;;;8.34;85.28;95711.94;6124798;23;20194;-83
2022/12/30 03:38:45;;;;;;;0.40;0.40;;;;;;;8.41;84.79;95710.38;6125256;23;20163;-83
2022/12/30 03:41:12;;;;;;;0.50;0.50;;;;;;;8.34;85.26;95711.94;6124989;23;20183;-81
2022/12/30 03:43:39;;;;;;;0.40;0.40;;;;;;;8.21;85.61;95698.78;6124199;23;20179;-82
2022/12/30 03:46:07;;;;;;;0.40;0.40;;;;;;;8.28;85.24;95702.28;6124996;23;20187;-83
2022/12/30 03:48:34;;;;;;;0.50;0.50;;;;;;;8.29;85.00;95714.94;6125913;23;20246;-83
2022/12/30 03:51:00;;;;;;;0.63;0.50;;;;;;;8.31;85.10;95707.91;6124844;23;20183;-82
2022/12/30 03:53:28;;;;;;;0.40;0.40;;;;;;;8.32;84.90;95706.97;6126304;23;20715;-82
2022/12/30 03:55:54;;;;;;;0.43;0.43;;;;;;;8.29;85.08;95702.13;6126211;23;20190;-81
2022/12/30 03:58:21;;;;;;;0.40;0.40;;;;;;;8.25;85.23;95697.50;6125640;23;20172;-82
2022/12/30 04:00:49;;;;;;;0.30;0.30;;;;;;;8.16;85.83;95706.94;6125691;23;20186;-82
2022/12/30 04:03:16;;;;;;;0.40;0.40;;;;;;;8.21;85.75;95696.22;6124845;23;20653;-83
2022/12/30 04:05:42;;;;;;;0.50;0.50;;;;;;;8.26;85.35;95693.97;6124161;23;20215;-82
2022/12/30 04:08:09;;;;;;;0.50;0.40;;;;;;;8.16;86.07;95690.75;6125435;23;20203;-82
2022/12/30 04:10:37;;;;;;;0.43;0.43;;;;;;;8.07;86.43;95704.53;6125367;23;20232;-83
2022/12/30 04:13:03;;;;;;;0.43;0.43;;;;;;;8.02;86.42;95704.19;6124828;23;20183;-82
2022/12/30 04:15:29;;;;;;;0.60;0.60;;;;;;;7.94;87.76;95697.28;6125381;23;20247;-83
2022/12/30 04:17:56;;;;;;;0.53;0.53;;;;;;;7.93;88.31;95701.59;6124324;23;20709;-82
2022/12/30 04:20:22;;;;;;;0.40;0.40;;;;;;;7.97;87.13;95702.09;6124629;23;20183;-81
2022/12/30 04:22:48;;;;;;;0.80;0.50;;;;;;;7.96;87.45;95698.72;6125195;23;20195;-82
2022/12/30 04:25:15;;;;;;;0.77;0.70;;;;;;;8.07;86.73;95696.84;6124323;23;20200;-81
2022/12/30 04:27:43;;;;;;;0.50;0.50;;;;;;;8.03;86.45;95690.41;6123790;23;20203;-82
2022/12/30 04:30:10;;;;;;;0.50;0.50;;;;;;;8.03;86.78;95698.91;6124600;23;20176;-82
2022/12/30 04:32:36;;;;;;;1.13;0.47;;;;;;;8.06;86.95;95702.94;6124135;23;20176;-82
2022/12/30 04:35:03;;;;;;;1.50;0.60;;;;;;;8.03;86.78;95693.78;6123983;23;20195;-82
2022/12/30 04:37:30;;;;;;;0.40;0.40;;;;;;;8.03;86.69;95691.22;6124358;23;20227;-81
2022/12/30 04:39:56;;;;;;;0.43;0.43;;;;;;;8.02;86.83;95693.94;6124364;23;20634;-82
2022/12/30 04:42:22;;;;;;;0.50;0.50;;;;;;;8.06;86.45;95688.34;6123840;23;20625;-81
2022/12/30 04:44:50;;;;;;;0.50;0.50;;;;;;;8.11;86.40;95680.97;6124557;23;20203;-82
2022/12/30 04:47:17;;;;;;;0.50;0.50;;;;;;;8.08;86.17;95683.06;6122337;23;20231;-83
2022/12/30 04:49:44;;;;;;;0.43;0.43;;;;;;;8.05;86.25;95678.25;6124867;23;20226;-83
2022/12/30 04:52:11;;;;;;;0.40;0.40;;;;;;;8.08;86.49;95676.13;6124598;23;20844;-81
2022/12/30 04:54:37;;;;;;;0.50;0.50;;;;;;;7.97;86.94;95682.38;6124461;23;20681;-82
2022/12/30 04:57:04;;;;;;;0.40;0.40;;;;;;;7.98;86.51;95690.88;6124178;23;20203;-83
2022/12/30 04:59:30;;;;;;;0.87;0.50;;;;;;;7.97;87.21;95690.06;6124304;23;20175;-82
2022/12/30 05:01:58;;;;;;;0.50;0.50;;;;;;;7.96;87.61;95691.03;6123378;23;20183;-83
2022/12/30 05:04:24;;;;;;;0.40;0.40;;;;;;;7.98;87.72;95690.88;6123570;23;20861;-81
2022/12/30 05:06:50;;;;;;;0.40;0.40;;;;;;;8.02;87.05;95689.63;6123955;23;20199;-81
2022/12/30 05:09:17;;;;;;;0.70;0.43;;;;;;;7.98;87.76;95683.19;6124302;23;20168;-83
2022/12/30 05:11:43;;;;;;;1.03;0.60;;;;;;;7.98;87.91;95690.88;6123583;23;20231;-82
2022/12/30 05:14:09;;;;;;;1.97;0.53;;;;;;;8.01;87.19;95692.34;6125022;23;20206;-81
2022/12/30 05:16:36;;;;;;;0.87;0.43;;;;;;;8.04;87.25;95692.03;6124629;23;20530;-82
2022/12/30 05:19:04;;;;;;;0.53;0.50;;;;;;;7.92;87.19;95694.88;6125163;23;20180;-82
2022/12/30 05:21:30;;;;;;;0.87;0.60;;;;;;;7.90;87.05;95701.09;6124155;23;20187;-82
2022/12/30 05:26:41;;;;;;;0.40;0.40;;;;;;;7.98;87.15;95693.44;6124777;23;20646;-82
2022/12/30 05:29:07;;;;;;;0.40;0.40;;;;;;;8.05;86.44;95691.88;6125012;23;20183;-81
2022/12/30 05:31:34;;;;;;;1.07;0.60;;;;;;;8.04;86.22;95697.94;6121951;23;20190;-81
2022/12/30 05:34:00;;;;;;;1.03;0.50;;;;;;;8.05;86.14;95691.06;6114568;23;20732;-82
2022/12/30 05:36:28;;;;;;;0.40;0.40;;;;;;;8.08;86.06;95688.19;6120149;23;20171;-82
2022/12/30 05:38:54;;;;;;;0.83;0.60;;;;;;;8.12;85.68;95687.69;6121285;23;20176;-82
2022/12/30 05:41:21;;;;;;;1.07;0.50;;;;;;;8.11;86.11;95696.34;6121649;23;20179;-82
2022/12/30 05:43:47;;;;;;;0.40;0.40;;;;;;;8.09;86.38;95698.25;6120831;23;20262;-82
2022/12/30 05:46:14;;;;;;;0.40;0.40;;;;;;;8.01;86.21;95703.38;6118332;23;20175;-81
2022/12/30 05:48:41;;;;;;;0.60;0.60;;;;;;;8.04;86.45;95697.94;6119673;23;20203;-83
2022/12/30 05:51:08;;;;;;;0.40;0.40;;;;;;;8.10;86.29;95694.75;6123405;23;20637;-81
2022/12/30 05:53:36;;;;;;;0.77;0.70;;;;;;;8.15;85.70;95699.41;6123769;23;20668;-81
2022/12/30 05:56:03;;;;;;;0.50;0.50;;;;;;;8.14;85.01;95695.22;6123215;23;20569;-82
2022/12/30 05:58:29;;;;;;;0.50;0.50;;;;;;;8.10;85.13;95686.25;6123718;23;20175;-82
2022/12/30 06:00:56;;;;;;;0.50;0.50;;;;;;;8.11;85.34;95690.41;6122178;23;20675;-82
2022/12/30 06:03:23;;;;;;;1.40;0.50;;;;;;;8.11;85.43;95683.53;6121579;23;20160;-83
2022/12/30 06:05:55;;;;;;;1.87;0.57;;;;;;;8.11;85.87;95683.53;6119212;23;20266;-81
2022/12/30 06:08:22;;;;;;;1.13;0.70;;;;;;;8.09;85.73;95685.44;6113529;23;20183;-82
2022/12/30 06:10:50;;;;;;;0.60;0.60;;;;;;;8.03;85.94;95688.66;6118223;23;20623;-82
2022/12/30 06:13:16;;;;;;;0.80;0.50;;;;;;;7.96;85.95;95687.66;6119452;23;20185;-83
2022/12/30 06:15:42;;;;;;;0.50;0.50;;;;;;;8.01;86.21;95677.75;6124055;23;20203;-83
2022/12/30 06:18:09;;;;;;;0.50;0.50;;;;;;;8.06;85.76;95664.47;6122758;23;20179;-82
2022/12/30 06:20:36;;;;;;;0.60;0.60;;;;;;;7.97;86.30;95653.38;6123462;23;20187;-83
2022/12/30 06:23:03;;;;;;;0.50;0.50;;;;;;;7.84;86.85;95666.66;6123250;23;20160;-82
2022/12/30 06:25:30;;;;;;;0.77;0.50;;;;;;;7.79;87.54;95668.09;6125528;23;20199;-82
2022/12/30 06:27:58;;;;;;;1.57;0.70;;;;;;;7.78;87.44;95664.72;6127298;23;20183;-83
2022/12/30 06:30:24;;;;;;;1.00;0.57;;;;;;;7.73;87.76;95671.28;6128522;23;20183;-83
2022/12/30 06:32:53;;;;;;;0.77;0.50;;;;;;;7.68;87.89;95670.97;6126337;23;20494;-83
2022/12/30 06:35:20;;;;;;;0.63;0.63;;;;;;;7.70;87.63;95676.75;6126954;23;20681;-83
2022/12/30 06:37:46;;;;;;;3.03;0.50;;;;;;;7.75;87.70;95677.06;6125573;23;20167;-83
2022/12/30 06:40:12;;;;;;;0.60;0.60;;;;;;;7.68;87.57;95678.66;6128850;23;20520;-83
2022/12/30 06:42:39;;;;;;;0.80;0.70;;;;;;;7.76;86.99;95684.59;6127480;23;20641;-82
2022/12/30 06:45:08;;;;;;;0.60;0.60;;;;;;;7.76;87.11;95684.59;6127776;23;20195;-83
2022/12/30 06:47:34;;;;;;;0.70;0.70;;;;;;;7.80;86.31;95692.78;6125321;23;20256;-83
2022/12/30 06:50:01;;;;;;;0.63;0.60;;;;;;;7.85;85.92;95695.66;6126444;23;20163;-82
2022/12/30 06:52:27;;;;;;;4.80;3.83;;;;;;;7.85;86.19;95695.66;6126454;23;20191;-82
2022/12/30 06:54:53;;;;;;;7.83;5.77;;;;;;;7.88;85.71;95693.59;6125981;23;20200;-82
2022/12/30 06:57:20;;;;;;;7.60;5.93;;;;;;;7.90;85.45;95703.66;6126608;23;20186;-83
2022/12/30 06:59:46;;;;;;;6.20;5.23;;;;;;;7.91;85.21;95703.50;6124499;23;20206;-83
2022/12/30 07:02:15;;;;;;;8.30;5.67;;;;;;;7.94;85.69;95699.84;6126060;23;20179;-82
2022/12/30 07:04:41;;;;;;;1.50;1.40;;;;;;;7.79;85.69;95704.78;6125380;23;20746;-83
2022/12/30 07:07:08;;;;;;;1.00;1.00;;;;;;;7.80;85.22;95697.91;6126222;23;20180;-82
2022/12/30 07:09:35;;;;;;;0.87;0.83;;;;;;;7.85;85.02;95698.22;6124709;23;20184;-83
2022/12/30 07:12:01;;;;;;;1.87;0.80;;;;;;;7.90;84.80;95693.41;6128237;23;20180;-83
2022/12/30 07:14:28;;;;;;;0.70;0.70;;;;;;;7.85;85.13;95695.66;6128233;23;20200;-82
2022/12/30 07:16:54;;;;;;;0.83;0.83;;;;;;;7.83;84.60;95693.25;6126690;23;20177;-83
2022/12/30 07:19:22;;;;;;;0.90;0.90;;;;;;;7.78;84.84;95692.13;6125925;23;20175;-83
2022/12/30 07:21:49;;;;;;;1.00;0.90;;;;;;;7.79;84.70;95688.59;6127175;23;20304;-83
2022/12/30 07:24:15;;;;;;;1.37;1.10;;;;;;;7.78;84.87;95694.69;6126768;23;20503;-81
2022/12/30 07:26:41;;;;;;;1.10;1.00;;;;;;;7.80;84.79;95688.44;6124502;23;20247;-82
2022/12/30 07:29:08;;;;;;;1.10;1.00;;;;;;;7.75;84.58;95682.97;6120860;23;20203;-83
2022/12/30 07:31:34;;;;;;;1.40;1.13;;;;;;;7.73;85.03;95684.09;6121289;23;20164;-85
2022/12/30 07:34:01;;;;;;;1.23;1.07;;;;;;;7.75;85.10;95688.09;6120089;23;20728;-82
2022/12/30 07:36:28;;;;;;;0.80;0.80;;;;;;;7.81;84.75;95696.94;6123193;23;20191;-82
2022/12/30 07:38:56;;;;;;;2.90;1.00;;;;;;;7.84;84.85;95707.69;6123094;23;20830;-84
2022/12/30 07:41:23;;;;;;;0.70;0.70;;;;;;;7.86;83.91;95708.34;6124616;23;20171;-84
2022/12/30 07:43:49;;;;;;;1.00;0.90;;;;;;;7.85;83.72;95700.81;6124249;23;20160;-83
2022/12/30 07:46:16;;;;;;;1.03;0.93;;;;;;;7.76;84.09;95694.03;6124443;23;20285;-82
2022/12/30 07:48:42;;;;;;;1.23;0.90;;;;;;;7.77;84.36;95683.63;6124017;23;20195;-83
2022/12/30 07:51:09;;;;;;;1.07;0.83;;;;;;;7.77;84.16;95687.94;6124678;23;20187;-84
2022/12/30 07:53:37;;;;;;;3.47;1.00;;;;;;;7.84;83.87;95687.19;6124144;23;20175;-83
2022/12/30 07:56:05;;;;;;;1.10;1.00;;;;;;;7.94;83.47;95694.72;6124577;23;20198;-83
2022/12/30 07:58:31;;;;;;;1.20;1.00;;;;;;;8.06;83.04;95695.22;6123679;23;20206;-83
2022/12/30 08:00:58;;;;;;;1.00;0.90;;;;;;;8.11;84.04;95691.22;6124252;23;20179;-84
2022/12/30 08:03:27;;;;;;;1.53;1.07;;;;;;;8.15;82.47;95699.41;6125625;23;20187;-83
2022/12/30 08:05:53;;;;;;;1.40;1.20;;;;;;;8.24;82.33;95708.72;6124653;23;20234;-83
2022/12/30 08:08:20;;;;;;;1.20;1.10;;;;;;;8.34;81.77;95706.81;6123323;23;20199;-84
2022/12/30 08:10:55;;;;;;;2.07;0.97;;;;;;;8.46;80.40;95708.13;6121996;23;20565;-83
2022/12/30 08:13:22;;;;;;;2.07;1.47;;;;;;;8.58;80.16;95711.16;6121979;23;20156;-84
2022/12/30 08:15:48;;;;;;;1.30;1.20;;;;;;;8.66;79.60;95711.16;6122478;23;20199;-83
2022/12/30 08:18:15;;;;;;;1.00;1.00;;;;;;;8.79;79.38;95700.41;6124942;23;20394;-84
2022/12/30 08:20:43;;;;;;;1.40;1.30;;;;;;;8.93;78.69;95705.66;6124541;23;20230;-83
2022/12/30 08:23:10;;;;;;;1.90;1.77;;;;;;;8.97;77.87;95706.16;6124601;23;20163;-83
2022/12/30 08:25:36;;;;;;;1.20;1.10;;;;;;;9.04;77.21;95703.75;6125947;23;20211;-84
2022/12/30 08:28:07;;;;;;;1.90;0.70;;;;;;;9.14;76.54;95702.59;6125397;23;20183;-84
2022/12/30 08:30:34;;;;;;;0.93;0.93;;;;;;;9.26;76.04;95700.44;6124573;23;20167;-83
2022/12/30 08:33:03;;;;;;;1.40;0.90;;;;;;;9.31;75.58;95691.28;6125358;23;20174;-84
2022/12/30 08:35:30;;;;;;;0.73;0.73;;;;;;;9.53;74.93;95699.25;6124265;23;20195;-83
2022/12/30 08:37:56;;;;;;;1.00;0.90;;;;;;;9.64;74.02;95701.44;6125079;23;20159;-84
2022/12/30 08:40:23;;;;;;;1.27;1.00;;;;;;;9.70;73.71;95698.19;6126790;23;20257;-84
2022/12/30 08:42:49;;;;;;;0.80;0.70;;;;;;;9.72;73.31;95708.31;6123518;23;20214;-84
2022/12/30 08:45:17;;;;;;;0.73;0.73;;;;;;;9.66;72.97;95704.63;6121137;23;20589;-83
2022/12/30 08:47:43;;;;;;;1.23;0.90;;;;;;;9.76;73.17;95704.44;6119633;23;20174;-82
2022/12/30 08:50:10;;;;;;;0.70;0.70;;;;;;;9.79;72.56;95714.41;6121470;23;20184;-83
2022/12/30 08:52:37;;;;;;;0.70;0.70;;;;;;;9.91;72.35;95715.63;6119894;23;20167;-84
2022/12/30 08:55:04;;;;;;;0.60;0.60;;;;;;;9.90;71.65;95714.81;6117930;23;20226;-82
2022/12/30 08:57:30;;;;;;;73.60;55.33;;;;;;;9.92;72.29;95720.59;6117299;23;20179;-82
2022/12/30 08:59:56;;;;;;;4.73;3.57;;;;;;;10.00;71.66;95725.72;6118605;23;20191;-81
2022/12/30 09:02:24;;;;;;;0.90;0.90;;;;;;;10.19;70.23;95721.94;6119462;23;20242;-83
2022/12/30 09:04:51;;;;;;;0.73;0.73;;;;;;;10.30;70.27;95723.28;6121389;23;20696;-82
2022/12/30 09:07:17;;;;;;;1.00;0.73;;;;;;;10.20;70.16;95722.72;6121901;23;20191;-84
2022/12/30 09:09:43;;;;;;;0.67;0.60;;;;;;;10.22;69.09;95721.56;6123505;23;20701;-84
2022/12/30 09:12:10;;;;;;;0.83;0.70;;;;;;;10.33;69.69;95722.97;6123460;23;20191;-81
2022/12/30 09:14:36;;;;;;;0.70;0.70;;;;;;;10.45;68.63;95713.06;6121343;23;20251;-81
2022/12/30 09:17:03;;;;;;;0.70;0.70;;;;;;;10.49;68.62;95717.69;6122363;23;20573;-80
2022/12/30 09:19:30;;;;;;;0.80;0.80;;;;;;;10.59;67.49;95713.09;6121888;23;20176;-84
2022/12/30 09:21:57;;;;;;;0.60;0.60;;;;;;;10.64;67.71;95715.16;6122723;23;20187;-84
2022/12/30 09:24:24;;;;;;;0.60;0.60;;;;;;;10.84;66.33;95716.28;6123500;23;20258;-85
2022/12/30 09:26:52;;;;;;;0.63;0.63;;;;;;;10.71;66.28;95705.78;6123437;23;20246;-82
2022/12/30 09:29:18;;;;;;;1.20;1.10;;;;;;;10.50;66.51;95695.31;6122947;23;20206;-81
2022/12/30 09:31:45;;;;;;;0.70;0.70;;;;;;;10.69;65.92;95700.78;6124682;23;20164;-82
2022/12/30 09:34:12;;;;;;;0.70;0.70;;;;;;;10.83;65.12;95699.22;6124903;23;20199;-82
2022/12/30 09:36:40;;;;;;;2.00;0.80;;;;;;;11.13;65.04;95701.84;6123632;23;20183;-83
2022/12/30 09:39:06;;;;;;;1.17;0.83;;;;;;;11.05;63.75;95698.38;6123297;23;20175;-84
2022/12/30 09:44:40;;;;;;;0.70;0.70;;;;;;;10.84;64.03;95703.38;6122638;23;20198;-81
2022/12/30 09:47:14;;;;;;;1.67;0.77;;;;;;;10.95;64.60;95694.44;6122200;23;20250;-82
2022/12/30 09:49:47;;;;;;;0.70;0.70;;;;;;;10.99;64.50;95699.06;6124607;23;20190;-82
2022/12/30 09:52:20;;;;;;;0.70;0.70;;;;;;;10.94;64.20;95685.94;6124136;23;20206;-83
2022/12/30 09:54:51;;;;;;;1.57;0.80;;;;;;;10.73;64.42;95676.31;6123590;23;20203;-81
2022/12/30 09:57:31;;;;;;;0.70;0.70;;;;;;;10.52;65.14;95673.59;6123778;23;20179;-84
2022/12/30 10:00:03;;;;;;;0.83;0.80;;;;;;;10.38;65.85;95656.34;6123174;23;20182;-84
2022/12/30 10:02:40;;;;;;;0.80;0.80;;;;;;;10.32;66.22;95655.25;6122795;23;20617;-82
2022/12/30 10:05:12;;;;;;;0.60;0.60;;;;;;;10.34;66.74;95650.72;6120977;23;20202;-82
2022/12/30 10:07:50;;;;;;;0.87;0.80;;;;;;;10.37;66.71;95637.53;6123392;23;20190;-84
2022/12/30 10:10:20;;;;;;;0.70;0.70;;;;;;;10.46;66.21;95634.84;6122641;23;20253;-83
2022/12/30 10:12:55;;;;;;;1.20;0.70;;;;;;;10.44;66.58;95629.09;6124308;23;20183;-84
2022/12/30 10:15:33;;;;;;;1.13;0.83;;;;;;;10.52;66.76;95629.81;6124857;23;20258;-85
2022/12/30 10:18:19;;;;;;;0.73;0.70;;;;;;;10.81;66.54;95618.75;6121649;23;20189;-84
2022/12/30 10:20:56;;;;;;;1.43;0.90;;;;;;;10.87;64.48;95615.47;6120587;23;20175;-81
2022/12/30 10:23:36;;;;;;;0.83;0.80;;;;;;;10.86;65.25;95610.50;6121732;23;20168;-82
2022/12/30 10:26:11;;;;;;;0.97;0.80;;;;;;;10.97;64.84;95603.09;6120557;23;20191;-81
2022/12/30 10:28:39;;;;;;;1.07;0.80;;;;;;;10.99;64.56;95590.06;6119427;23;20194;-82
2022/12/30 10:31:09;;;;;;;0.80;0.80;;;;;;;11.09;65.16;95588.03;6119843;23;20176;-83
2022/12/30 10:33:36;;;;;;;0.90;0.90;;;;;;;11.13;64.75;95580.72;6120776;23;20203;-82
2022/12/30 10:36:13;;;;;;;0.70;0.70;;;;;;;11.28;64.55;95576.34;6119436;23;20199;-82
2022/12/30 10:38:42;;;;;;;5.87;4.40;;;;;;;11.38;64.33;95574.28;6119351;23;20554;-82
2022/12/30 10:41:26;;;;;;;0.90;0.90;;;;;;;11.34;63.84;95570.47;6121649;23;20191;-83
2022/12/30 10:44:05;;;;;;;1.00;0.90;;;;;;;11.25;63.92;95561.25;6123845;23;20168;-83
2022/12/30 10:46:44;;;;;;;0.97;0.97;;;;;;;11.14;64.24;95556.56;6121918;23;20167;-82
2022/12/30 10:49:29;;;;;;;0.87;0.87;;;;;;;11.21;63.47;95550.50;6122611;23;20186;-82
2022/12/30 10:51:56;;;;;;;1.03;1.00;;;;;;;11.35;63.68;95544.50;6125113;23;20637;-83
2022/12/30 10:54:24;;;;;;;1.13;0.90;;;;;;;11.42;63.29;95545.38;6125534;23;20196;-82
2022/12/30 10:56:50;;;;;;;1.10;1.00;;;;;;;11.48;62.83;95543.06;6125706;23;20223;-82
2022/12/30 10:59:18;;;;;;;1.00;0.90;;;;;;;11.59;62.88;95542.56;6126526;23;20176;-82
2022/12/30 11:01:47;;;;;;;0.83;0.83;;;;;;;11.64;62.32;95537.66;6125300;23;20176;-82
2022/12/30 11:04:34;;;;;;;0.80;0.80;;;;;;;11.81;61.65;95535.66;6124670;23;20195;-84
2022/12/30 11:07:03;;;;;;;1.70;1.10;;;;;;;11.74;60.29;95532.97;6128142;23;20194;-82
2022/12/30 11:09:30;;;;;;;1.20;1.10;;;;;;;11.69;60.14;95519.84;6128004;23;20222;-83
2022/12/30 11:14:45;;;;;;;1.40;1.30;;;;;;;11.76;60.31;95513.78;6127459;23;20201;-83
2022/12/30 11:17:22;;;;;;;2.00;1.20;;;;;;;11.83;59.18;95502.75;6127395;23;20183;-83
2022/12/30 11:19:51;;;;;;;1.43;1.30;;;;;;;11.60;59.22;95510.63;6127078;23;20159;-83
2022/12/30 11:22:18;;;;;;;1.40;1.30;;;;;;;11.50;59.20;95510.16;6127400;23;20577;-83
2022/12/30 11:24:58;;;;;;;1.20;1.10;;;;;;;11.39;60.07;95496.75;6126749;23;20580;-84
2022/12/30 11:27:36;;;;;;;1.47;1.20;;;;;;;11.59;59.61;95496.16;6126776;23;20171;-83
2022/12/30 11:30:04;;;;;;;0.80;0.80;;;;;;;11.56;59.17;95487.00;6126390;23;20687;-83
2022/12/30 11:32:30;;;;;;;1.10;1.00;;;;;;;11.57;59.49;95490.38;6127365;23;20179;-82
2022/12/30 11:34:57;;;;;;;0.90;0.90;;;;;;;11.61;59.81;95478.72;6126690;23;20199;-83
2022/12/30 11:37:33;;;;;;;1.00;1.00;;;;;;;11.75;59.71;95478.63;6127187;23;20180;-82
2022/12/30 11:40:25;;;;;;;1.30;1.20;;;;;;;11.79;59.26;95471.34;6126302;23;20585;-82
2022/12/30 11:43:06;;;;;;;1.93;1.43;;;;;;;11.84;59.66;95460.47;6126447;23;20780;-83
2022/12/30 11:45:32;;;;;;;1.10;1.00;;;;;;;11.83;59.46;95458.88;6125836;23;20260;-83
2022/12/30 11:47:59;;;;;;;1.37;1.20;;;;;;;11.90;59.92;95462.31;6123824;23;20529;-83
2022/12/30 11:50:26;;;;;;;1.20;1.10;;;;;;;11.87;59.85;95457.53;6127735;23;20258;-83
2022/12/30 11:52:59;;;;;;;1.07;1.00;;;;;;;12.13;60.00;95462.06;6126936;23;20569;-83
2022/12/30 11:55:26;;;;;;;1.33;1.20;;;;;;;12.25;59.64;95461.38;6126494;23;20695;-82
2022/12/30 11:57:57;;;;;;;0.80;0.80;;;;;;;12.13;58.07;95456.91;6125967;23;20186;-83
2022/12/30 12:00:33;;;;;;;0.70;0.70;;;;;;;12.10;58.38;95458.91;6126393;23;20177;-83
2022/12/30 12:06:07;;;;;;;1.67;0.80;;;;;;;12.10;58.15;95438.25;6124622;23;20223;-84
2022/12/30 12:08:36;;;;;;;0.70;0.70;;;;;;;12.08;57.66;95445.38;6127826;23;20179;-84
2022/12/30 12:11:08;;;;;;;0.70;0.70;;;;;;;12.08;57.25;95442.81;6126411;23;20176;-83
2022/12/30 12:13:41;;;;;;;0.80;0.80;;;;;;;12.13;57.52;95431.88;6127775;23;20745;-83
2022/12/30 12:16:15;;;;;;;0.70;0.70;;;;;;;12.17;56.88;95425.38;6128795;23;20168;-83
2022/12/30 12:18:44;;;;;;;1.00;0.90;;;;;;;12.18;56.52;95426.16;6127792;23;20168;-83
2022/12/30 12:21:19;;;;;;;2.00;1.80;;;;;;;12.16;56.68;95422.97;6127319;23;20195;-82
2022/12/30 12:23:49;;;;;;;1.87;0.80;;;;;;;12.25;56.40;95425.22;6125547;23;20167;-82
2022/12/30 12:26:19;;;;;;;0.70;0.70;;;;;;;12.26;56.09;95433.78;6126775;23;20182;-84
2022/12/30 12:28:48;;;;;;;2.63;0.80;;;;;;;12.26;56.26;95432.00;6125212;23;20187;-83
2022/12/30 12:31:43;;;;;;;0.90;0.90;;;;;;;12.24;56.15;95420.25;6127161;23;20653;-84
2022/12/30 12:34:22;;;;;;;1.53;0.80;;;;;;;12.34;55.60;95416.31;6125921;23;20203;-83
2022/12/30 12:36:56;;;;;;;0.80;0.80;;;;;;;12.29;56.43;95413.53;6125720;23;20546;-84
2022/12/30 12:39:31;;;;;;;0.90;0.90;;;;;;;12.25;56.55;95427.81;6126705;23;20344;-85
2022/12/30 12:42:04;;;;;;;0.80;0.80;;;;;;;12.31;56.04;95426.25;6126042;23;20170;-83
2022/12/30 12:45:07;;;;;;;1.10;1.00;;;;;;;12.29;56.27;95429.03;6125090;23;20203;-83
2022/12/30 12:47:49;;;;;;;1.53;1.00;;;;;;;12.37;56.03;95430.63;6124901;23;20223;-83
2022/12/30 12:50:31;;;;;;;0.80;0.80;;;;;;;12.54;55.64;95433.69;6126055;23;20190;-81
2022/12/30 12:53:14;;;;;;;2.07;0.90;;;;;;;12.76;54.93;95430.00;6123868;23;20177;-82
2022/12/30 12:56:21;;;;;;;0.97;0.80;;;;;;;12.97;54.94;95431.66;6124441;23;20199;-83